createdAt,value
2023-12-11T00:01:33.458Z,1.40
2023-12-11T00:03:33.841Z,1.70
2023-12-11T00:05:34.257Z,1.70
2023-12-11T00:07:34.530Z,2.10
2023-12-11T00:09:34.817Z,2.30
2023-12-11T00:11:35.075Z,2.10
2023-12-11T00:13:35.363Z,1.70
2023-12-11T00:15:35.694Z,1.70
2023-12-11T00:17:36.147Z,1.90
2023-12-11T00:19:36.578Z,1.50
2023-12-11T00:21:36.846Z,1.40
2023-12-11T00:23:37.105Z,1.40
2023-12-11T00:25:37.400Z,1.40
2023-12-11T00:27:37.751Z,1.40
2023-12-11T00:29:38.014Z,1.70
2023-12-11T00:31:38.322Z,1.50
2023-12-11T00:33:38.706Z,1.70
2023-12-11T00:35:38.982Z,1.70
2023-12-11T00:37:39.243Z,1.60
2023-12-11T00:39:39.624Z,1.60
2023-12-11T00:41:39.892Z,1.70
2023-12-11T00:43:45.249Z,1.70
2023-12-11T00:45:45.365Z,1.50
2023-12-11T00:47:45.690Z,1.60
2023-12-11T00:49:46.106Z,1.50
2023-12-11T00:51:46.465Z,1.50
2023-12-11T00:53:46.702Z,1.50
2023-12-11T00:55:47.001Z,1.70
2023-12-11T00:57:47.279Z,1.50
2023-12-11T00:59:47.632Z,1.40
2023-12-11T01:01:47.947Z,1.20
2023-12-11T01:03:48.390Z,1.50
2023-12-11T01:05:48.769Z,1.50
2023-12-11T01:07:49.030Z,1.50
2023-12-11T01:09:49.406Z,1.70
2023-12-11T01:11:49.724Z,1.50
2023-12-11T01:13:50.017Z,1.50
2023-12-11T01:15:50.332Z,1.50
2023-12-11T01:17:51.036Z,1.40
2023-12-11T01:19:51.544Z,1.40
2023-12-11T01:21:51.915Z,1.50
2023-12-11T01:23:55.008Z,1.50
2023-12-11T01:25:56.690Z,1.50
2023-12-11T01:27:56.979Z,1.60
2023-12-11T01:29:57.304Z,1.50
2023-12-11T01:31:57.568Z,1.40
2023-12-11T01:33:57.917Z,1.70
2023-12-11T01:35:58.256Z,1.50
2023-12-11T01:37:58.507Z,1.50
2023-12-11T01:39:58.863Z,1.40
2023-12-11T01:41:59.167Z,1.30
2023-12-11T01:43:59.472Z,1.60
2023-12-11T01:45:59.736Z,1.30
2023-12-11T01:48:00.106Z,1.60
2023-12-11T01:50:00.418Z,1.50
2023-12-11T01:52:00.833Z,1.30
2023-12-11T01:54:01.290Z,1.40
2023-12-11T01:56:01.569Z,1.50
2023-12-11T01:58:01.901Z,1.40
2023-12-11T02:00:02.209Z,1.70
2023-12-11T02:02:02.486Z,1.50
2023-12-11T02:04:02.940Z,1.50
2023-12-11T02:06:03.197Z,1.50
2023-12-11T02:08:03.749Z,1.80
2023-12-11T02:10:04.087Z,1.40
2023-12-11T02:12:04.368Z,1.40
2023-12-11T02:14:04.645Z,1.40
2023-12-11T02:16:04.918Z,1.30
2023-12-11T02:18:05.270Z,1.40
2023-12-11T02:20:05.616Z,1.30
2023-12-11T02:22:05.920Z,1.40
2023-12-11T02:24:06.227Z,1.40
2023-12-11T02:26:06.493Z,1.40
2023-12-11T02:28:06.847Z,1.30
2023-12-11T02:30:07.150Z,1.40
2023-12-11T02:32:07.424Z,1.50
2023-12-11T02:34:07.918Z,1.40
2023-12-11T02:36:08.202Z,1.40
2023-12-11T02:38:08.450Z,1.30
2023-12-11T02:40:08.812Z,1.40
2023-12-11T02:42:09.126Z,1.40
2023-12-11T02:44:09.440Z,1.60
2023-12-11T02:46:09.774Z,1.40
2023-12-11T02:48:10.076Z,1.60
2023-12-11T02:50:10.363Z,1.40
2023-12-11T02:52:10.670Z,1.60
2023-12-11T02:54:10.962Z,1.60
2023-12-11T02:56:11.266Z,1.50
2023-12-11T02:58:11.846Z,1.40
2023-12-11T03:00:12.174Z,1.40
2023-12-11T03:02:12.498Z,1.70
2023-12-11T03:04:12.858Z,1.50
2023-12-11T03:06:13.184Z,1.30
2023-12-11T03:08:13.428Z,1.50
2023-12-11T03:10:13.777Z,1.50
2023-12-11T03:12:14.124Z,1.40
2023-12-11T03:14:14.384Z,1.60
2023-12-11T03:16:14.741Z,1.60
2023-12-11T03:18:15.077Z,1.30
2023-12-11T03:20:15.388Z,1.60
2023-12-11T03:22:15.714Z,1.50
2023-12-11T03:24:15.978Z,1.40
2023-12-11T03:26:16.252Z,1.40
2023-12-11T03:28:16.639Z,1.30
2023-12-11T03:30:16.962Z,1.40
2023-12-11T03:32:17.217Z,1.40
2023-12-11T03:34:17.640Z,1.40
2023-12-11T03:36:18.182Z,1.40
2023-12-11T03:38:18.406Z,1.60
2023-12-11T03:40:18.730Z,1.40
2023-12-11T03:42:19.016Z,1.70
2023-12-11T03:44:19.316Z,1.70
2023-12-11T03:46:19.587Z,1.60
2023-12-11T03:48:19.991Z,1.60
2023-12-11T03:50:20.311Z,1.60
2023-12-11T03:52:20.625Z,1.60
2023-12-11T03:54:20.880Z,1.50
2023-12-11T03:56:21.165Z,1.60
2023-12-11T03:58:21.487Z,1.60
2023-12-11T04:00:21.801Z,1.50
2023-12-11T04:02:22.332Z,1.60
2023-12-11T04:04:22.751Z,1.80
2023-12-11T04:06:23.073Z,1.60
2023-12-11T04:08:23.346Z,1.60
2023-12-11T04:10:23.611Z,1.50
2023-12-11T04:12:23.929Z,1.70
2023-12-11T04:14:24.205Z,1.30
2023-12-11T04:16:24.548Z,1.40
2023-12-11T04:18:24.881Z,1.50
2023-12-11T04:20:25.227Z,1.50
2023-12-11T04:22:25.507Z,1.20
2023-12-11T04:24:25.792Z,1.50
2023-12-11T04:26:26.045Z,1.50
2023-12-11T04:28:26.339Z,1.30
2023-12-11T04:30:26.626Z,1.60
2023-12-11T04:32:26.987Z,1.20
2023-12-11T04:34:27.294Z,1.40
2023-12-11T04:36:27.568Z,1.30
2023-12-11T04:38:27.846Z,1.20
2023-12-11T04:40:28.120Z,1.30
2023-12-11T04:42:28.405Z,1.40
2023-12-11T04:44:28.746Z,1.40
2023-12-11T04:46:29.010Z,1.20
2023-12-11T04:48:29.418Z,1.40
2023-12-11T04:50:29.725Z,1.30
2023-12-11T04:52:30.002Z,1.40
2023-12-11T04:54:30.281Z,1.70
2023-12-11T04:56:30.522Z,1.40
2023-12-11T04:58:30.824Z,1.50
2023-12-11T05:00:31.117Z,1.30
2023-12-11T05:02:31.359Z,1.20
2023-12-11T05:04:31.672Z,1.50
2023-12-11T05:06:31.966Z,1.50
2023-12-11T05:08:32.248Z,1.40
2023-12-11T05:10:32.548Z,1.70
2023-12-11T05:12:32.872Z,1.60
2023-12-11T05:14:33.119Z,1.50
2023-12-11T05:16:33.440Z,1.70
2023-12-11T05:18:38.549Z,1.50
2023-12-11T05:20:38.889Z,1.60
2023-12-11T05:22:39.174Z,1.60
2023-12-11T05:24:39.485Z,1.70
2023-12-11T05:26:39.743Z,1.50
2023-12-11T05:28:40.023Z,1.60
2023-12-11T05:30:40.423Z,1.50
2023-12-11T05:32:40.854Z,1.50
2023-12-11T05:34:41.167Z,1.30
2023-12-11T05:36:41.469Z,1.40
2023-12-11T05:38:41.762Z,1.50
2023-12-11T05:40:42.144Z,1.40
2023-12-11T05:42:42.525Z,1.50
2023-12-11T05:44:42.816Z,1.50
2023-12-11T05:46:43.107Z,1.60
2023-12-11T05:48:43.613Z,1.60
2023-12-11T05:50:44.049Z,1.70
2023-12-11T05:52:44.328Z,1.50
2023-12-11T05:54:44.625Z,1.50
2023-12-11T05:56:44.905Z,1.80
2023-12-11T05:58:45.187Z,1.90
2023-12-11T06:00:45.531Z,1.60
2023-12-11T06:02:45.880Z,1.50
2023-12-11T06:04:46.170Z,1.60
2023-12-11T06:06:46.542Z,1.50
2023-12-11T06:08:46.824Z,1.70
2023-12-11T06:10:47.132Z,1.40
2023-12-11T06:12:47.477Z,1.70
2023-12-11T06:14:49.525Z,1.40
2023-12-11T06:16:50.126Z,1.50
2023-12-11T06:18:50.520Z,1.70
2023-12-11T06:20:50.891Z,1.20
2023-12-11T06:22:51.132Z,1.20
2023-12-11T06:24:51.472Z,1.30
2023-12-11T06:26:51.777Z,1.40
2023-12-11T06:28:56.970Z,1.30
2023-12-11T06:30:57.379Z,1.30
2023-12-11T06:32:57.688Z,1.20
2023-12-11T06:34:58.148Z,1.20
2023-12-11T06:36:58.528Z,1.20
2023-12-11T06:38:59.265Z,1.30
2023-12-11T06:40:59.561Z,1.10
2023-12-11T06:42:59.890Z,1.30
2023-12-11T06:45:00.163Z,1.50
2023-12-11T06:47:00.546Z,1.60
2023-12-11T06:49:01.074Z,1.60
2023-12-11T06:51:01.389Z,1.40
2023-12-11T06:53:01.717Z,1.50
2023-12-11T06:55:02.001Z,1.60
2023-12-11T06:57:02.321Z,1.40
2023-12-11T06:59:02.577Z,2.00
2023-12-11T07:01:03.009Z,2.10
2023-12-11T07:03:03.400Z,2.50
2023-12-11T07:05:03.807Z,2.30
2023-12-11T07:07:04.243Z,2.00
2023-12-11T07:09:04.754Z,1.60
2023-12-11T07:11:05.040Z,1.70
2023-12-11T07:13:05.403Z,1.60
2023-12-11T07:15:05.781Z,1.70
2023-12-11T07:17:06.047Z,1.50
2023-12-11T07:19:06.538Z,1.50
2023-12-11T07:21:06.871Z,1.40
2023-12-11T07:23:07.128Z,1.40
2023-12-11T07:25:12.444Z,1.20
2023-12-11T07:27:12.771Z,1.30
2023-12-11T07:29:13.108Z,1.20
2023-12-11T07:31:13.418Z,1.10
2023-12-11T07:33:13.863Z,1.20
2023-12-11T07:35:14.171Z,1.20
2023-12-11T07:37:14.517Z,1.30
2023-12-11T07:39:14.819Z,1.30
2023-12-11T07:41:15.113Z,1.00
2023-12-11T07:43:15.473Z,1.30
2023-12-11T07:45:16.367Z,1.40
2023-12-11T07:47:16.711Z,1.20
2023-12-11T07:49:17.089Z,1.80
2023-12-11T07:51:17.390Z,1.40
2023-12-11T07:53:17.659Z,1.40
2023-12-11T07:55:18.013Z,1.30
2023-12-11T07:57:18.311Z,1.10
2023-12-11T07:59:18.635Z,1.50
2023-12-11T08:01:18.974Z,1.20
2023-12-11T08:03:19.263Z,1.50
2023-12-11T08:05:19.578Z,1.50
2023-12-11T08:07:19.923Z,2.00
2023-12-11T08:09:20.180Z,1.80
2023-12-11T08:11:20.575Z,1.50
2023-12-11T08:13:21.000Z,1.70
2023-12-11T08:15:21.292Z,1.50
2023-12-11T08:17:21.616Z,1.40
2023-12-11T08:19:21.977Z,1.40
2023-12-11T08:21:22.306Z,1.60
2023-12-11T08:23:22.572Z,1.50
2023-12-11T08:25:22.935Z,1.70
2023-12-11T08:27:23.240Z,2.00
2023-12-11T08:29:23.501Z,2.30
2023-12-11T08:31:23.841Z,2.00
2023-12-11T08:33:24.125Z,1.50
2023-12-11T08:35:24.414Z,1.20
2023-12-11T08:37:24.734Z,1.50
2023-12-11T08:39:25.000Z,1.40
2023-12-11T08:41:25.348Z,1.60
2023-12-11T08:43:25.753Z,1.30
2023-12-11T08:45:30.789Z,1.30
2023-12-11T08:47:32.146Z,1.40
2023-12-11T08:49:33.374Z,1.60
2023-12-11T08:51:33.696Z,1.20
2023-12-11T08:53:33.995Z,1.50
2023-12-11T08:55:34.240Z,1.30
2023-12-11T08:57:34.695Z,1.40
2023-12-11T08:59:35.029Z,1.60
2023-12-11T09:01:35.411Z,1.60
2023-12-11T09:03:35.725Z,1.70
2023-12-11T09:05:36.060Z,1.80
2023-12-11T09:07:36.342Z,1.80
2023-12-11T09:09:36.655Z,1.60
2023-12-11T09:11:36.918Z,1.30
2023-12-11T09:13:37.233Z,1.40
2023-12-11T09:15:37.525Z,1.60
2023-12-11T09:17:37.849Z,1.50
2023-12-11T09:19:44.706Z,1.50
2023-12-11T09:21:43.453Z,1.50
2023-12-11T09:23:43.740Z,1.30
2023-12-11T09:25:44.000Z,1.50
2023-12-11T09:27:45.740Z,1.50
2023-12-11T09:29:47.672Z,1.50
2023-12-11T09:31:47.949Z,1.50
2023-12-11T09:33:48.642Z,1.60
2023-12-11T09:35:49.230Z,1.40
2023-12-11T09:37:50.716Z,1.50
2023-12-11T09:39:52.111Z,1.50
2023-12-11T09:41:52.396Z,1.50
2023-12-11T09:43:53.857Z,1.40
2023-12-11T09:45:54.806Z,1.80
2023-12-11T09:48:05.020Z,1.40
2023-12-11T09:50:00.511Z,1.30
2023-12-11T09:52:00.853Z,1.50
2023-12-11T09:54:01.145Z,1.40
2023-12-11T09:56:01.399Z,1.40
2023-12-11T09:58:01.763Z,1.50
2023-12-11T10:00:02.486Z,1.60
2023-12-11T10:02:03.542Z,1.50
2023-12-11T10:04:03.916Z,1.60
2023-12-11T10:06:04.257Z,1.50
2023-12-11T10:08:04.512Z,1.80
2023-12-11T10:10:04.832Z,1.80
2023-12-11T10:12:05.105Z,1.50
2023-12-11T10:14:05.369Z,1.50
2023-12-11T10:16:05.723Z,1.50
2023-12-11T10:18:06.275Z,1.50
2023-12-11T10:20:06.713Z,1.50
2023-12-11T10:22:07.118Z,1.60
2023-12-11T10:24:07.398Z,1.60
2023-12-11T10:26:07.683Z,1.60
2023-12-11T10:28:08.007Z,1.70
2023-12-11T10:30:08.288Z,1.80
2023-12-11T10:32:08.575Z,2.00
2023-12-11T10:34:09.024Z,1.60
2023-12-11T10:36:09.336Z,1.70
2023-12-11T10:38:14.508Z,1.70
2023-12-11T10:40:14.873Z,1.70
2023-12-11T10:42:15.212Z,1.90
2023-12-11T10:44:21.855Z,1.70
2023-12-11T10:46:20.764Z,1.70
2023-12-11T10:48:21.919Z,1.70
2023-12-11T10:50:22.879Z,1.70
2023-12-11T10:52:23.281Z,1.80
2023-12-11T10:54:23.586Z,1.70
2023-12-11T10:56:23.998Z,1.80
2023-12-11T10:58:24.410Z,1.80
2023-12-11T11:00:24.739Z,1.60
2023-12-11T11:02:25.076Z,1.90
2023-12-11T11:04:25.365Z,1.70
2023-12-11T11:06:25.716Z,1.80
2023-12-11T11:08:26.008Z,1.70
2023-12-11T11:10:26.429Z,1.80
2023-12-11T11:12:26.749Z,2.30
2023-12-11T11:14:27.064Z,1.60
2023-12-11T11:16:27.450Z,1.70
2023-12-11T11:18:27.835Z,1.60
2023-12-11T11:20:28.135Z,1.60
2023-12-11T11:22:35.889Z,1.90
2023-12-11T11:24:33.628Z,1.80
2023-12-11T11:26:33.911Z,2.10
2023-12-11T11:28:34.323Z,1.70
2023-12-11T11:30:34.678Z,1.60
2023-12-11T11:32:34.965Z,2.00
2023-12-11T11:34:35.254Z,2.20
2023-12-11T11:36:35.532Z,2.00
2023-12-11T11:38:35.811Z,1.90
2023-12-11T11:40:36.186Z,1.80
2023-12-11T11:42:36.507Z,1.70
2023-12-11T11:44:36.833Z,2.10
2023-12-11T11:46:37.116Z,1.70
2023-12-11T11:48:37.447Z,1.90
2023-12-11T11:50:37.737Z,2.20
2023-12-11T11:52:38.054Z,2.70
2023-12-11T11:54:38.417Z,1.90
2023-12-11T11:56:38.707Z,1.80
2023-12-11T11:58:39.024Z,2.00
2023-12-11T12:00:39.497Z,1.90
2023-12-11T12:02:39.818Z,1.90
2023-12-11T12:04:40.175Z,1.70
2023-12-11T12:06:40.491Z,2.00
2023-12-11T12:08:40.743Z,1.80
2023-12-11T12:10:41.016Z,2.10
2023-12-11T12:12:41.467Z,2.40
2023-12-11T12:14:41.746Z,1.80
2023-12-11T12:16:42.106Z,2.00
2023-12-11T12:18:42.519Z,2.00
2023-12-11T12:20:42.917Z,1.70
2023-12-11T12:22:44.294Z,2.00
2023-12-11T12:24:44.721Z,2.10
2023-12-11T12:26:44.959Z,1.80
2023-12-11T12:28:45.287Z,1.90
2023-12-11T12:30:45.590Z,1.60
2023-12-11T12:32:45.908Z,1.60
2023-12-11T12:34:46.443Z,1.70
2023-12-11T12:36:46.747Z,1.80
2023-12-11T12:38:47.054Z,2.00
2023-12-11T12:40:47.370Z,1.50
2023-12-11T12:42:47.632Z,1.80
2023-12-11T12:44:47.898Z,1.70
2023-12-11T12:46:48.570Z,2.00
2023-12-11T12:48:48.930Z,1.70
2023-12-11T12:50:49.251Z,1.80
2023-12-11T12:52:49.556Z,1.80
2023-12-11T12:54:49.877Z,1.90
2023-12-11T12:56:50.158Z,1.80
2023-12-11T12:58:50.499Z,1.70
2023-12-11T13:00:50.811Z,1.80
2023-12-11T13:02:51.167Z,1.90
2023-12-11T13:04:51.608Z,1.90
2023-12-11T13:06:51.942Z,1.70
2023-12-11T13:08:52.263Z,1.80
2023-12-11T13:10:52.543Z,1.60
2023-12-11T13:12:52.868Z,1.60
2023-12-11T13:14:53.164Z,2.00
2023-12-11T13:16:53.459Z,1.60
2023-12-11T13:18:53.861Z,1.70
2023-12-11T13:20:54.319Z,1.70
2023-12-11T13:22:54.647Z,1.70
2023-12-11T13:24:54.971Z,1.70
2023-12-11T13:26:55.263Z,1.60
2023-12-11T13:28:55.536Z,1.80
2023-12-11T13:30:55.909Z,1.60
2023-12-11T13:32:56.209Z,1.60
2023-12-11T13:34:56.589Z,1.70
2023-12-11T13:36:56.914Z,1.80
2023-12-11T13:38:57.244Z,2.00
2023-12-11T13:40:57.513Z,1.80
2023-12-11T13:42:57.822Z,2.00
2023-12-11T13:44:58.137Z,2.00
2023-12-11T13:46:58.445Z,1.60
2023-12-11T13:48:58.995Z,2.20
2023-12-11T13:51:03.938Z,1.90
2023-12-11T13:53:04.224Z,2.00
2023-12-11T13:55:04.601Z,1.80
2023-12-11T13:57:04.909Z,1.50
2023-12-11T13:59:05.181Z,2.10
2023-12-11T14:01:05.584Z,2.30
2023-12-11T14:03:05.976Z,1.50
2023-12-11T14:05:06.503Z,1.80
2023-12-11T14:07:07.282Z,1.70
2023-12-11T14:09:07.559Z,1.90
2023-12-11T14:11:07.826Z,1.70
2023-12-11T14:13:08.195Z,1.70
2023-12-11T14:15:08.648Z,1.90
2023-12-11T14:17:08.997Z,1.70
2023-12-11T14:19:09.376Z,1.70
2023-12-11T14:21:09.712Z,2.10
2023-12-11T14:23:09.976Z,1.80
2023-12-11T14:25:10.468Z,1.90
2023-12-11T14:27:10.741Z,1.90
2023-12-11T14:29:11.091Z,1.90
2023-12-11T14:31:11.529Z,1.80
2023-12-11T14:33:11.960Z,2.20
2023-12-11T14:35:12.466Z,1.80
2023-12-11T14:37:12.778Z,1.70
2023-12-11T14:39:13.079Z,2.10
2023-12-11T14:41:14.103Z,1.80
2023-12-11T14:43:15.612Z,2.00
2023-12-11T14:45:15.941Z,2.00
2023-12-11T14:47:16.234Z,2.20
2023-12-11T14:49:16.611Z,1.80
2023-12-11T14:51:16.917Z,1.60
2023-12-11T14:53:17.210Z,2.10
2023-12-11T14:55:25.005Z,1.80
2023-12-11T14:57:22.706Z,1.80
2023-12-11T14:59:23.017Z,1.90
2023-12-11T15:01:23.434Z,1.90
2023-12-11T15:03:23.757Z,2.30
2023-12-11T15:05:24.122Z,2.00
2023-12-11T15:07:24.488Z,1.60
2023-12-11T15:09:24.807Z,1.80
2023-12-11T15:11:25.210Z,1.70
2023-12-11T15:13:25.918Z,2.10
2023-12-11T15:15:26.578Z,1.90
2023-12-11T15:17:26.951Z,1.80
2023-12-11T15:19:27.395Z,1.70
2023-12-11T15:21:27.722Z,1.50
2023-12-11T15:23:27.974Z,1.90
2023-12-11T15:25:29.176Z,1.80
2023-12-11T15:27:29.788Z,1.60
2023-12-11T15:29:30.229Z,1.90
2023-12-11T15:31:30.591Z,2.00
2023-12-11T15:33:30.928Z,1.80
2023-12-11T15:35:31.237Z,1.60
2023-12-11T15:37:31.829Z,2.10
2023-12-11T15:39:32.221Z,2.00
2023-12-11T15:41:32.527Z,1.90
2023-12-11T15:43:32.812Z,1.70
2023-12-11T15:45:33.112Z,1.90
2023-12-11T15:47:59.375Z,1.80
2023-12-11T15:49:38.709Z,2.50
2023-12-11T15:51:39.277Z,1.80
2023-12-11T15:53:39.581Z,1.60
2023-12-11T15:55:39.957Z,1.70
2023-12-11T15:57:40.252Z,1.80
2023-12-11T15:59:40.545Z,1.80
2023-12-11T16:01:40.896Z,1.50
2023-12-11T16:03:41.266Z,2.10
2023-12-11T16:05:41.640Z,1.90
2023-12-11T16:07:41.916Z,2.00
2023-12-11T16:09:42.239Z,2.10
2023-12-11T16:11:42.526Z,1.80
2023-12-11T16:13:42.864Z,1.80
2023-12-11T16:15:43.179Z,2.20
2023-12-11T16:17:43.538Z,1.80
2023-12-11T16:19:43.917Z,1.80
2023-12-11T16:21:44.478Z,2.20
2023-12-11T16:23:49.552Z,1.90
2023-12-11T16:25:56.486Z,1.90
2023-12-11T16:27:55.029Z,1.70
2023-12-11T16:29:55.321Z,1.90
2023-12-11T16:31:55.741Z,1.70
2023-12-11T16:33:56.132Z,1.90
2023-12-11T16:35:56.449Z,1.80
2023-12-11T16:37:58.721Z,1.70
2023-12-11T16:40:01.935Z,1.70
2023-12-11T16:42:02.243Z,1.80
2023-12-11T16:44:02.489Z,1.90
2023-12-11T16:46:02.874Z,2.10
2023-12-11T16:48:03.395Z,2.10
2023-12-11T16:50:07.875Z,1.80
2023-12-11T16:52:09.012Z,1.90
2023-12-11T16:54:09.266Z,2.10
2023-12-11T16:56:09.538Z,1.70
2023-12-11T16:58:09.838Z,1.80
2023-12-11T17:00:10.093Z,1.80
2023-12-11T17:02:10.471Z,1.80
2023-12-11T17:04:11.096Z,2.00
2023-12-11T17:06:11.449Z,1.90
2023-12-11T17:08:11.758Z,2.20
2023-12-11T17:10:12.045Z,2.20
2023-12-11T17:12:12.331Z,2.20
2023-12-11T17:14:12.585Z,2.00
2023-12-11T17:16:12.903Z,2.00
2023-12-11T17:18:13.218Z,2.10
2023-12-11T17:20:13.551Z,2.10
2023-12-11T17:22:13.898Z,1.80
2023-12-11T17:24:14.164Z,2.00
2023-12-11T17:26:14.408Z,2.00
2023-12-11T17:28:14.753Z,2.10
2023-12-11T17:30:15.044Z,1.70
2023-12-11T17:32:15.294Z,2.20
2023-12-11T17:34:15.682Z,1.70
2023-12-11T17:36:15.962Z,2.00
2023-12-11T17:38:16.233Z,2.60
2023-12-11T17:40:16.698Z,2.10
2023-12-11T17:42:16.968Z,2.10
2023-12-11T17:44:17.274Z,2.20
2023-12-11T17:46:17.591Z,2.40
2023-12-11T17:48:17.918Z,2.40
2023-12-11T17:50:23.072Z,2.10
2023-12-11T17:52:23.340Z,2.10
2023-12-11T17:54:23.615Z,3.00
2023-12-11T17:56:24.099Z,2.60
2023-12-11T17:58:24.396Z,2.60
2023-12-11T18:00:24.680Z,2.40
2023-12-11T18:02:24.973Z,2.10
2023-12-11T18:04:25.316Z,2.30
2023-12-11T18:06:25.690Z,2.80
2023-12-11T18:08:25.956Z,2.50
2023-12-11T18:10:26.261Z,2.10
2023-12-11T18:12:26.604Z,2.50
2023-12-11T18:14:26.867Z,2.30
2023-12-11T18:16:27.217Z,2.30
2023-12-11T18:18:27.580Z,2.30
2023-12-11T18:20:27.885Z,2.60
2023-12-11T18:22:28.249Z,2.20
2023-12-11T18:24:28.468Z,2.30
2023-12-11T18:26:28.738Z,2.30
2023-12-11T18:28:29.121Z,2.40
2023-12-11T18:30:29.446Z,2.30
2023-12-11T18:32:30.357Z,2.00
2023-12-11T18:34:39.472Z,3.20
2023-12-11T18:36:35.826Z,2.60
2023-12-11T18:38:36.072Z,2.40
2023-12-11T18:40:36.430Z,2.20
2023-12-11T18:42:36.698Z,2.70
2023-12-11T18:44:36.972Z,2.20
2023-12-11T18:46:37.258Z,2.50
2023-12-11T18:48:37.617Z,2.70
2023-12-11T18:50:37.880Z,2.40
2023-12-11T18:52:38.179Z,2.60
2023-12-11T18:54:38.471Z,2.30
2023-12-11T18:56:38.726Z,2.40
2023-12-11T18:58:39.020Z,2.50
2023-12-11T19:00:39.337Z,2.80
2023-12-11T19:02:39.753Z,2.50
2023-12-11T19:04:40.114Z,2.70
2023-12-11T19:06:40.409Z,2.20
2023-12-11T19:08:40.716Z,2.30
2023-12-11T19:10:41.035Z,2.40
2023-12-11T19:12:41.311Z,2.40
2023-12-11T19:14:41.662Z,2.50
2023-12-11T19:16:41.976Z,2.30
2023-12-11T19:18:42.327Z,2.30
2023-12-11T19:20:42.659Z,2.30
2023-12-11T19:22:42.930Z,2.20
2023-12-11T19:24:43.169Z,2.50
2023-12-11T19:26:43.499Z,2.10
2023-12-11T19:28:43.759Z,2.40
2023-12-11T19:30:44.388Z,2.20
2023-12-11T19:32:44.730Z,2.70
2023-12-11T19:34:45.104Z,2.50
2023-12-11T19:36:45.535Z,2.60
2023-12-11T19:38:45.803Z,2.20
2023-12-11T19:40:46.095Z,2.50
2023-12-11T19:42:48.110Z,2.60
2023-12-11T19:44:48.718Z,2.80
2023-12-11T19:46:49.028Z,2.70
2023-12-11T19:48:49.458Z,2.60
2023-12-11T19:50:50.020Z,2.60
2023-12-11T19:52:51.665Z,2.60
2023-12-11T19:54:52.324Z,2.60
2023-12-11T19:56:52.627Z,2.60
2023-12-11T19:58:52.977Z,2.30
2023-12-11T20:00:53.357Z,2.40
2023-12-11T20:02:53.664Z,2.60
2023-12-11T20:04:54.024Z,2.40
2023-12-11T20:06:54.323Z,2.80
2023-12-11T20:08:54.636Z,2.60
2023-12-11T20:10:54.919Z,2.80
2023-12-11T20:12:55.295Z,2.70
2023-12-11T20:14:55.586Z,2.80
2023-12-11T20:16:55.855Z,2.60
2023-12-11T20:18:56.212Z,2.40
2023-12-11T20:20:56.578Z,2.50
2023-12-11T20:22:56.907Z,2.30
2023-12-11T20:24:57.195Z,2.90
2023-12-11T20:26:57.491Z,2.40
2023-12-11T20:28:57.757Z,3.10
2023-12-11T20:30:58.081Z,2.70
2023-12-11T20:32:58.372Z,2.80
2023-12-11T20:34:58.676Z,3.20
2023-12-11T20:36:58.999Z,3.10
2023-12-11T20:38:59.262Z,3.20
2023-12-11T20:40:59.570Z,3.00
2023-12-11T20:42:59.842Z,2.80
2023-12-11T20:45:00.164Z,2.60
2023-12-11T20:47:00.483Z,2.60
2023-12-11T20:49:00.854Z,2.70
2023-12-11T20:51:01.163Z,3.20
2023-12-11T20:53:01.496Z,2.70
2023-12-11T20:55:01.783Z,3.30
2023-12-11T20:57:02.134Z,3.80
2023-12-11T20:59:02.420Z,3.30
2023-12-11T21:01:02.755Z,3.00
2023-12-11T21:03:03.948Z,2.60
2023-12-11T21:05:04.331Z,2.60
2023-12-11T21:07:04.654Z,2.70
2023-12-11T21:09:09.811Z,3.10
2023-12-11T21:11:10.084Z,2.50
2023-12-11T21:13:10.431Z,2.70
2023-12-11T21:15:10.717Z,2.70
2023-12-11T21:17:11.058Z,2.70
2023-12-11T21:19:11.410Z,2.70
2023-12-11T21:21:11.713Z,3.00
2023-12-11T21:23:12.557Z,2.80
2023-12-11T21:25:12.960Z,2.70
2023-12-11T21:27:13.285Z,3.00
2023-12-11T21:29:13.570Z,3.40
2023-12-11T21:31:13.925Z,3.10
2023-12-11T21:33:14.219Z,2.50
2023-12-11T21:35:14.497Z,2.90
2023-12-11T21:37:14.823Z,2.90
2023-12-11T21:39:15.104Z,2.90
2023-12-11T21:41:15.410Z,2.50
2023-12-11T21:43:15.722Z,2.70
2023-12-11T21:45:16.023Z,2.90
2023-12-11T21:47:16.289Z,2.40
2023-12-11T21:49:16.734Z,2.80
2023-12-11T21:51:17.108Z,2.90
2023-12-11T21:53:17.358Z,2.50
2023-12-11T21:55:17.695Z,2.50
2023-12-11T21:57:17.978Z,2.70
2023-12-11T21:59:18.241Z,2.50
2023-12-11T22:01:18.691Z,2.50
2023-12-11T22:03:19.016Z,2.60
2023-12-11T22:05:19.312Z,2.40
2023-12-11T22:07:19.595Z,2.80
2023-12-11T22:09:19.885Z,3.00
2023-12-11T22:11:20.174Z,2.60
2023-12-11T22:13:20.594Z,2.80
2023-12-11T22:15:20.854Z,2.50
2023-12-11T22:17:21.122Z,2.60
2023-12-11T22:19:21.582Z,2.60
2023-12-11T22:21:21.920Z,2.50
2023-12-11T22:23:22.196Z,2.60
2023-12-11T22:25:22.578Z,2.70
2023-12-11T22:27:22.905Z,2.40
2023-12-11T22:29:23.187Z,2.60
2023-12-11T22:31:23.491Z,3.10
2023-12-11T22:33:23.798Z,2.90
2023-12-11T22:35:24.099Z,2.70
2023-12-11T22:37:24.378Z,2.50
2023-12-11T22:39:24.659Z,2.60
2023-12-11T22:41:24.917Z,2.90
2023-12-11T22:43:25.246Z,3.20
2023-12-11T22:45:25.560Z,2.80
2023-12-11T22:47:25.792Z,2.80
2023-12-11T22:49:26.163Z,2.80
2023-12-11T22:51:26.468Z,3.30
2023-12-11T22:53:26.705Z,2.60
2023-12-11T22:55:27.012Z,2.80
2023-12-11T22:57:27.270Z,3.00
2023-12-11T22:59:32.413Z,2.60
2023-12-11T23:01:32.769Z,2.80
2023-12-11T23:03:33.063Z,2.80
2023-12-11T23:05:33.421Z,2.60
2023-12-11T23:07:34.177Z,2.90
2023-12-11T23:09:34.640Z,3.10
2023-12-11T23:11:34.938Z,2.90
2023-12-11T23:13:35.328Z,2.80
2023-12-11T23:15:35.634Z,2.70
2023-12-11T23:17:36.669Z,3.00
2023-12-11T23:19:37.418Z,2.90
2023-12-11T23:21:37.756Z,2.90
2023-12-11T23:23:38.261Z,3.00
2023-12-11T23:25:41.367Z,2.80
2023-12-11T23:27:43.757Z,3.10
2023-12-11T23:29:48.020Z,2.80
2023-12-11T23:31:48.633Z,2.90
2023-12-11T23:33:49.163Z,3.10
2023-12-11T23:35:49.465Z,3.30
2023-12-11T23:37:49.744Z,3.00
2023-12-11T23:39:50.056Z,2.80
2023-12-11T23:41:50.288Z,3.10
2023-12-11T23:43:50.600Z,3.30
2023-12-11T23:45:50.869Z,2.70
2023-12-11T23:47:51.192Z,2.70
2023-12-11T23:49:51.742Z,2.80
2023-12-11T23:51:52.052Z,2.90
2023-12-11T23:53:52.373Z,3.00
2023-12-11T23:55:52.640Z,3.10
2023-12-11T23:57:52.975Z,2.90
2023-12-11T23:59:53.248Z,2.70
